首页
METAR-TAF:

METAR-TAF

机场 :

Felker Army Airfield

Fort Eustis, 弗吉尼亚州, 美国

纬度: 37-08N, 经度: 076-37W, 海拔: 4米

当前天气观测

该预报发布于58分钟前的14:56 UTC
风速4节,风向东转东北
温度 9°C
湿度 61%
气压 1032 hPa
能見度: 16.1公里
天空无云

METAR: KFAF 081456Z AUTO 07004KT 10SM CLR 09/02 A3047 RMK AO2 SLP321 T00860020 53001 $

时间: 10:54 (15:54 UTC)

预报

该预报发布于38小时和14分钟前的01:40 UTC
预报有效从07日的 01点(UTC)到 08日的 01点(UTC)
风速6节,风向西转西南
能见度10公里或以上
阴天层高于5000英尺
成为
从 07日的 06点(UTC)到 07日的 07点(UTC)
风速9节,风向
能见度10公里或以上
少量云层高于1000英尺
散云层高于3500英尺
成为
从 07日的 10点(UTC)到 07日的 11点(UTC)
风速12节,风向,有时为18节阵风
能見度: 0911
天空无云

TAF: KFAF 070140Z 0701/0801 25006KT 9999 OVC050 QNH3022INS BECMG 0706/0707 01009KT 9999 FEW010 SCT035 QNH3022INS BECMG 0710/0711 36012G18KT 9999 SKC QNH3033INS TX12/0701Z TN07/0713Z LAST NO AMDS AFT 0702 NEXT 0911

超过4000个机场的气象观测和天气预报(METAR&TAF报告)。

可查询的气象台以黄色和红色小点在地图上表示。

将鼠标移到小点上方,可查看气象台名称。

然后点击查看天气观测和预报。

如需切换地图:点击带黑十字的绿色按钮放大地图;点击带横线的绿色按钮缩小地图;或者点击绿色箭头查看邻近地区的地图。


METAR-TAF: